Maersk Lirquen — VRKB8 — position and weather

sailwx.info

Track history (hours):
 
Tides and Currents Weather Stations Pressure Air Temp Water Temp Dewpoint Dewpoint Depression Visibility Wind Speed Wind Dir Waves Ship Positions

Maersk Lirquen

Last reported at 2015-Mar-28 18:00 UTC. Time now 2015-Mar-29 04:27 UTC.
Position N 25°24' W 016°00'.

Length 300 m; draft 11.4 m.

Type: Ship (hazmat cat A). MMSI: 477423500.

Wind from 030 at 20 knots

Waves 1.0 meters (3 feet), 4 second period

Barometer 1022.2 mb
Air temperature 18.7 ° C
Visibility: greater than 10.8 NM
Dewpoint 15.9 ° C
Water temperature 17.0 ° C

Date/timePositionNaut miles runAvg speedWind from/ knotsBaromVisibWave heightAir tempDewpointWater temp
2015-Mar-28 18:00N 25°24' W 016°00'18120.5 030 / 201022.210.8 1.018.715.917.0
2015-Mar-28 09:10N 27°45' W 013°54'1320.3
2015-Mar-28 08:31N 27°55' W 013°44'2019.9
2015-Mar-28 07:30N 28°12' W 013°31'2220.2
2015-Mar-28 06:26N 28°31' W 013°20'4319.9
2015-Mar-28 04:15N 29°07' W 012°53'3520.2
2015-Mar-28 02:30N 29°36' W 012°29'1919.8
2015-Mar-28 01:33N 29°52' W 012°17'37420.1
2015-Mar-27 07:00N 34°36' W 007°30'10518.9 340 / 81028.210.8 0.515.513.020.0
2015-Mar-27 01:26N 35°52' W 006°02'1517.2
2015-Mar-27 00:33N 35°57' W 005°44'1515.1
2015-Mar-26 23:34N 36°01' W 005°26'8 7.9
2015-Mar-26 22:33N 36°09' W 005°26'0 0.1
2015-Mar-26 21:32N 36°09' W 005°26'0 0.0
2015-Mar-26 20:32N 36°09' W 005°26'0 0.0
2015-Mar-26 19:32N 36°09' W 005°26'0 0.0
2015-Mar-26 18:32N 36°09' W 005°26'0 0.0
2015-Mar-26 17:32N 36°09' W 005°26'0 0.0
2015-Mar-26 16:29N 36°09' W 005°26'0 0.0
2015-Mar-26 15:32N 36°09' W 005°26'0 0.0
2015-Mar-26 14:32N 36°09' W 005°26'0 0.0
2015-Mar-26 13:32N 36°09' W 005°26'0 0.0
2015-Mar-26 12:32N 36°09' W 005°26'0 0.0
2015-Mar-26 11:32N 36°09' W 005°26'0 0.0
2015-Mar-26 10:32N 36°09' W 005°26'174 8.6
2015-Mar-25 14:10N 36°30' W 009°01'7319.8
2015-Mar-25 10:30N 37°33' W 009°47'2121.7
2015-Mar-25 09:32N 37°53' W 009°53'2121.4
2015-Mar-25 08:33N 38°13' W 009°59'2121.1
2015-Mar-25 07:33N 38°34' W 010°05'2221.4
2015-Mar-25 06:33N 38°55' W 010°07'2121.1
2015-Mar-25 05:33N 39°16' W 010°06'70520.1
2015-Mar-23 18:28N 49°56' W 003°10'1920.9
2015-Mar-23 17:34N 50°03' W 002°42'2623.8
2015-Mar-23 16:27N 50°07' W 002°02'4724.4
2015-Mar-23 14:32N 50°21' W 000°52'2221.8
2015-Mar-23 13:33N 50°27' W 000°19'2020.4
2015-Mar-23 12:33N 50°32' E 000°12'1919.0
2015-Mar-23 11:34N 50°38' E 000°40'2019.6
2015-Mar-23 10:33N 50°48' E 001°07'2323.1
2015-Mar-23 09:34N 51°04' E 001°33'2322.8
2015-Mar-23 08:34N 51°22' E 001°56'1616.2
2015-Mar-23 07:33N 51°21' E 002°22'1615.6
2015-Mar-23 06:33N 51°22' E 002°46'1717.2
2015-Mar-23 05:33N 51°25' E 003°14'1615.6
2015-Mar-23 04:34N 51°26' E 003°39'1211.7
2015-Mar-23 03:33N 51°23' E 003°56'7 6.7
2015-Mar-23 02:33N 51°22' E 004°07'7 7.1
2015-Mar-23 01:34N 51°18' E 004°16'1 0.6
2015-Mar-23 00:28N 51°18' E 004°16'0 0.0
2015-Mar-22 23:31N 51°18' E 004°16'0 0.0
2015-Mar-22 22:28N 51°18' E 004°16'0 0.0
2015-Mar-22 21:31N 51°18' E 004°16'0 0.0
2015-Mar-22 20:31N 51°18' E 004°16'0 0.0
2015-Mar-22 19:32N 51°18' E 004°16'0 0.0
2015-Mar-22 18:32N 51°18' E 004°16'0 0.0
2015-Mar-22 17:29N 51°18' E 004°16'0 0.0
2015-Mar-22 16:32N 51°18' E 004°16'0 0.0
2015-Mar-22 15:32N 51°18' E 004°16'0 0.0
2015-Mar-22 14:32N 51°18' E 004°16'0 0.0
2015-Mar-22 13:32N 51°18' E 004°16'0 0.0
2015-Mar-22 12:32N 51°18' E 004°16'0 0.0
2015-Mar-22 11:26N 51°18' E 004°16'0 0.0
2015-Mar-22 10:32N 51°18' E 004°16'0 0.0
2015-Mar-22 09:32N 51°18' E 004°16'0 0.0
2015-Mar-22 08:32N 51°18' E 004°16'0 0.0
2015-Mar-22 07:32N 51°18' E 004°16'0 0.0
2015-Mar-22 06:32N 51°18' E 004°16'0 0.0
2015-Mar-22 05:32N 51°18' E 004°16'0 0.0
2015-Mar-22 04:32N 51°18' E 004°16'0 0.0
2015-Mar-22 03:32N 51°18' E 004°16'2 1.7
2015-Mar-22 02:34N 51°19' E 004°16'10 9.9
2015-Mar-22 01:33N 51°24' E 004°02'1110.5
2015-Mar-22 00:34N 51°22' E 003°45'1010.1
2015-Mar-21 23:34N 51°25' E 003°30'1717.1
2015-Mar-21 22:34N 51°24' E 003°03'1616.2
2015-Mar-21 21:34N 51°40' E 003°12'1211.9
2015-Mar-21 20:32N 51°51' E 003°17'1313.4
2015-Mar-21 19:33N 52°05' E 003°20'1711.7
2015-Mar-21 18:06N 52°21' E 003°26'610.4
2015-Mar-21 17:33N 52°27' E 003°26'11 9.6
2015-Mar-21 16:26N 52°37' E 003°30'2210.4
2015-Mar-21 14:21N 52°53' E 003°54'2312.1
2015-Mar-21 12:26N 53°09' E 004°23'1112.9
2015-Mar-21 11:33N 53°19' E 004°32'1212.0
2015-Mar-21 10:33N 53°29' E 004°41'1110.9
2015-Mar-21 09:33N 53°33' E 004°58'1010.3
2015-Mar-21 08:33N 53°37' E 005°14'10 9.7
2015-Mar-21 07:33N 53°40' E 005°30'10 9.7
2015-Mar-21 06:33N 53°43' E 005°46'1010.0
2015-Mar-21 05:33N 53°46' E 006°02'1111.1
2015-Mar-21 04:33N 53°50' E 006°20'1311.7
2015-Mar-21 03:24N 53°53' E 006°42'2111.5
2015-Mar-21 01:33N 53°58' E 007°17'1110.6
2015-Mar-21 00:33N 53°60' E 007°34'9 8.6
2015-Mar-20 23:33N 53°54' E 007°45'1312.7
2015-Mar-20 22:33N 53°50' E 008°06'1515.1
2015-Mar-20 21:33N 53°39' E 008°24'6 5.8
2015-Mar-20 20:33N 53°35' E 008°31'0 0.0
2015-Mar-20 19:29N 53°35' E 008°31'0 0.0
2015-Mar-20 18:32N 53°35' E 008°31'0 0.0
2015-Mar-20 17:32N 53°35' E 008°31'0 0.0
2015-Mar-20 16:32N 53°35' E 008°31'0 0.0
2015-Mar-20 15:29N 53°35' E 008°31'0 0.0
2015-Mar-20 14:29N 53°35' E 008°31'0 0.0
2015-Mar-20 13:29N 53°35' E 008°31'0 0.0
2015-Mar-20 12:32N 53°35' E 008°31'0 0.0
2015-Mar-20 11:26N 53°35' E 008°31'0 0.0
2015-Mar-20 10:32N 53°35' E 008°31'0 0.0
2015-Mar-20 09:32N 53°35' E 008°31'0 0.0
2015-Mar-20 08:23N 53°35' E 008°31'0 0.0
2015-Mar-20 07:32N 53°35' E 008°31'0 0.0
2015-Mar-20 06:32N 53°35' E 008°31'0 0.0
2015-Mar-20 05:32N 53°35' E 008°31'0 0.0
2015-Mar-20 04:32N 53°35' E 008°31'0 0.0
2015-Mar-20 03:32N 53°35' E 008°31'0 0.0
2015-Mar-20 02:26N 53°35' E 008°31'0 0.0
2015-Mar-20 01:30N 53°35' E 008°31'0 0.0
2015-Mar-20 00:32N 53°35' E 008°31'0 0.0
2015-Mar-19 23:32N 53°35' E 008°31'0 0.0
2015-Mar-19 22:32N 53°36' E 008°31'0 0.0
2015-Mar-19 21:32N 53°35' E 008°31'0 0.0
2015-Mar-19 20:32N 53°35' E 008°31'0 0.0
2015-Mar-19 19:32N 53°35' E 008°31'0 0.0
2015-Mar-19 18:32N 53°35' E 008°31'0 0.0
2015-Mar-19 17:29N 53°35' E 008°31'0 0.0
2015-Mar-19 16:29N 53°35' E 008°31'0 0.0
2015-Mar-19 15:29N 53°35' E 008°31'0 0.0
2015-Mar-19 14:33N 53°35' E 008°31'8 7.6
2015-Mar-19 13:33N 53°41' E 008°22'1514.7
2015-Mar-19 12:33N 53°50' E 008°03'1313.3
2015-Mar-19 11:33N 53°53' E 007°41'3 2.9
2015-Mar-19 10:33N 53°53' E 007°36'2 1.6
2015-Mar-19 09:33N 53°54' E 007°34'4 4.3
2015-Mar-19 08:33N 53°54' E 007°27'7 6.6
2015-Mar-19 07:33N 53°53' E 007°16'9 9.2
2015-Mar-19 06:33N 53°51' E 007°00'10 9.8
2015-Mar-19 05:32N 53°49' E 006°44'1010.1
2015-Mar-19 04:33N 53°46' E 006°28'1110.2
2015-Mar-19 03:29N 53°43' E 006°10'910.0
2015-Mar-19 02:33N 53°40' E 005°55'10 9.7
2015-Mar-19 01:33N 53°37' E 005°39'1010.2
2015-Mar-19 00:33N 53°34' E 005°23'1010.1
2015-Mar-18 23:33N 53°31' E 005°07'10 9.8
2015-Mar-18 22:33N 53°27' E 004°52'10 9.5
2015-Mar-18 21:33N 53°21' E 004°40'8 8.5
2015-Mar-18 20:33N 53°13' E 004°34'9 8.7
2015-Mar-18 19:32N 53°05' E 004°27'9 9.0
2015-Mar-18 18:33N 52°57' E 004°20'  
Track history (hours):
 
Tides and Currents Weather Stations Pressure Air Temp Water Temp Dewpoint Dewpoint Depression Visibility Wind Speed Wind Dir Waves Ship Positions

Maersk Lirquen

Last reported at 2015-Mar-28 18:00 UTC. Time now 2015-Mar-29 04:27 UTC.
Position N 25°24' W 016°00'.

Length 300 m; draft 11.4 m.

Type: Ship (hazmat cat A). MMSI: 477423500.

Wind from 030 at 20 knots

Waves 1.0 meters (3 feet), 4 second period

Barometer 1022.2 mb
Air temperature 18.7 ° C
Visibility: greater than 10.8 NM
Dewpoint 15.9 ° C
Water temperature 17.0 ° C

Date/timePositionNaut miles runAvg speedWind from/ knotsBaromVisibWave heightAir tempDewpointWater temp
2015-Mar-28 18:00N 25°24' W 016°00'18120.5 030 / 201022.210.8 1.018.715.917.0
2015-Mar-28 09:10N 27°45' W 013°54'1320.3
2015-Mar-28 08:31N 27°55' W 013°44'2019.9
2015-Mar-28 07:30N 28°12' W 013°31'2220.2
2015-Mar-28 06:26N 28°31' W 013°20'4319.9
2015-Mar-28 04:15N 29°07' W 012°53'3520.2
2015-Mar-28 02:30N 29°36' W 012°29'1919.8
2015-Mar-28 01:33N 29°52' W 012°17'37420.1
2015-Mar-27 07:00N 34°36' W 007°30'10518.9 340 / 81028.210.8 0.515.513.020.0
2015-Mar-27 01:26N 35°52' W 006°02'1517.2
2015-Mar-27 00:33N 35°57' W 005°44'1515.1
2015-Mar-26 23:34N 36°01' W 005°26'8 7.9
2015-Mar-26 22:33N 36°09' W 005°26'0 0.1
2015-Mar-26 21:32N 36°09' W 005°26'0 0.0
2015-Mar-26 20:32N 36°09' W 005°26'0 0.0
2015-Mar-26 19:32N 36°09' W 005°26'0 0.0
2015-Mar-26 18:32N 36°09' W 005°26'0 0.0
2015-Mar-26 17:32N 36°09' W 005°26'0 0.0
2015-Mar-26 16:29N 36°09' W 005°26'0 0.0
2015-Mar-26 15:32N 36°09' W 005°26'0 0.0
2015-Mar-26 14:32N 36°09' W 005°26'0 0.0
2015-Mar-26 13:32N 36°09' W 005°26'0 0.0
2015-Mar-26 12:32N 36°09' W 005°26'0 0.0
2015-Mar-26 11:32N 36°09' W 005°26'0 0.0
2015-Mar-26 10:32N 36°09' W 005°26'174 8.6
2015-Mar-25 14:10N 36°30' W 009°01'7319.8
2015-Mar-25 10:30N 37°33' W 009°47'2121.7
2015-Mar-25 09:32N 37°53' W 009°53'2121.4
2015-Mar-25 08:33N 38°13' W 009°59'2121.1
2015-Mar-25 07:33N 38°34' W 010°05'2221.4
2015-Mar-25 06:33N 38°55' W 010°07'2121.1
2015-Mar-25 05:33N 39°16' W 010°06'70520.1
2015-Mar-23 18:28N 49°56' W 003°10'1920.9
2015-Mar-23 17:34N 50°03' W 002°42'2623.8
2015-Mar-23 16:27N 50°07' W 002°02'4724.4
2015-Mar-23 14:32N 50°21' W 000°52'2221.8
2015-Mar-23 13:33N 50°27' W 000°19'2020.4
2015-Mar-23 12:33N 50°32' E 000°12'1919.0
2015-Mar-23 11:34N 50°38' E 000°40'2019.6
2015-Mar-23 10:33N 50°48' E 001°07'2323.1
2015-Mar-23 09:34N 51°04' E 001°33'2322.8
2015-Mar-23 08:34N 51°22' E 001°56'1616.2
2015-Mar-23 07:33N 51°21' E 002°22'1615.6
2015-Mar-23 06:33N 51°22' E 002°46'1717.2
2015-Mar-23 05:33N 51°25' E 003°14'1615.6
2015-Mar-23 04:34N 51°26' E 003°39'1211.7
2015-Mar-23 03:33N 51°23' E 003°56'7 6.7
2015-Mar-23 02:33N 51°22' E 004°07'7 7.1
2015-Mar-23 01:34N 51°18' E 004°16'1 0.6
2015-Mar-23 00:28N 51°18' E 004°16'0 0.0
2015-Mar-22 23:31N 51°18' E 004°16'0 0.0
2015-Mar-22 22:28N 51°18' E 004°16'0 0.0
2015-Mar-22 21:31N 51°18' E 004°16'0 0.0
2015-Mar-22 20:31N 51°18' E 004°16'0 0.0
2015-Mar-22 19:32N 51°18' E 004°16'0 0.0
2015-Mar-22 18:32N 51°18' E 004°16'0 0.0
2015-Mar-22 17:29N 51°18' E 004°16'0 0.0
2015-Mar-22 16:32N 51°18' E 004°16'0 0.0
2015-Mar-22 15:32N 51°18' E 004°16'0 0.0
2015-Mar-22 14:32N 51°18' E 004°16'0 0.0
2015-Mar-22 13:32N 51°18' E 004°16'0 0.0
2015-Mar-22 12:32N 51°18' E 004°16'0 0.0
2015-Mar-22 11:26N 51°18' E 004°16'0 0.0
2015-Mar-22 10:32N 51°18' E 004°16'0 0.0
2015-Mar-22 09:32N 51°18' E 004°16'0 0.0
2015-Mar-22 08:32N 51°18' E 004°16'0 0.0
2015-Mar-22 07:32N 51°18' E 004°16'0 0.0
2015-Mar-22 06:32N 51°18' E 004°16'0 0.0
2015-Mar-22 05:32N 51°18' E 004°16'0 0.0
2015-Mar-22 04:32N 51°18' E 004°16'0 0.0
2015-Mar-22 03:32N 51°18' E 004°16'2 1.7
2015-Mar-22 02:34N 51°19' E 004°16'10 9.9
2015-Mar-22 01:33N 51°24' E 004°02'1110.5
2015-Mar-22 00:34N 51°22' E 003°45'1010.1
2015-Mar-21 23:34N 51°25' E 003°30'1717.1
2015-Mar-21 22:34N 51°24' E 003°03'1616.2
2015-Mar-21 21:34N 51°40' E 003°12'1211.9
2015-Mar-21 20:32N 51°51' E 003°17'1313.4
2015-Mar-21 19:33N 52°05' E 003°20'1711.7
2015-Mar-21 18:06N 52°21' E 003°26'610.4
2015-Mar-21 17:33N 52°27' E 003°26'11 9.6
2015-Mar-21 16:26N 52°37' E 003°30'2210.4
2015-Mar-21 14:21N 52°53' E 003°54'2312.1
2015-Mar-21 12:26N 53°09' E 004°23'1112.9
2015-Mar-21 11:33N 53°19' E 004°32'1212.0
2015-Mar-21 10:33N 53°29' E 004°41'1110.9
2015-Mar-21 09:33N 53°33' E 004°58'1010.3
2015-Mar-21 08:33N 53°37' E 005°14'10 9.7
2015-Mar-21 07:33N 53°40' E 005°30'10 9.7
2015-Mar-21 06:33N 53°43' E 005°46'1010.0
2015-Mar-21 05:33N 53°46' E 006°02'1111.1
2015-Mar-21 04:33N 53°50' E 006°20'1311.7
2015-Mar-21 03:24N 53°53' E 006°42'2111.5
2015-Mar-21 01:33N 53°58' E 007°17'1110.6
2015-Mar-21 00:33N 53°60' E 007°34'9 8.6
2015-Mar-20 23:33N 53°54' E 007°45'1312.7
2015-Mar-20 22:33N 53°50' E 008°06'1515.1
2015-Mar-20 21:33N 53°39' E 008°24'6 5.8
2015-Mar-20 20:33N 53°35' E 008°31'0 0.0
2015-Mar-20 19:29N 53°35' E 008°31'0 0.0
2015-Mar-20 18:32N 53°35' E 008°31'0 0.0
2015-Mar-20 17:32N 53°35' E 008°31'0 0.0
2015-Mar-20 16:32N 53°35' E 008°31'0 0.0
2015-Mar-20 15:29N 53°35' E 008°31'0 0.0
2015-Mar-20 14:29N 53°35' E 008°31'0 0.0
2015-Mar-20 13:29N 53°35' E 008°31'0 0.0
2015-Mar-20 12:32N 53°35' E 008°31'0 0.0
2015-Mar-20 11:26N 53°35' E 008°31'0 0.0
2015-Mar-20 10:32N 53°35' E 008°31'0 0.0
2015-Mar-20 09:32N 53°35' E 008°31'0 0.0
2015-Mar-20 08:23N 53°35' E 008°31'0 0.0
2015-Mar-20 07:32N 53°35' E 008°31'0 0.0
2015-Mar-20 06:32N 53°35' E 008°31'0 0.0
2015-Mar-20 05:32N 53°35' E 008°31'0 0.0
2015-Mar-20 04:32N 53°35' E 008°31'0 0.0
2015-Mar-20 03:32N 53°35' E 008°31'0 0.0
2015-Mar-20 02:26N 53°35' E 008°31'0 0.0
2015-Mar-20 01:30N 53°35' E 008°31'0 0.0
2015-Mar-20 00:32N 53°35' E 008°31'0 0.0
2015-Mar-19 23:32N 53°35' E 008°31'0 0.0
2015-Mar-19 22:32N 53°36' E 008°31'0 0.0
2015-Mar-19 21:32N 53°35' E 008°31'0 0.0
2015-Mar-19 20:32N 53°35' E 008°31'0 0.0
2015-Mar-19 19:32N 53°35' E 008°31'0 0.0
2015-Mar-19 18:32N 53°35' E 008°31'0 0.0
2015-Mar-19 17:29N 53°35' E 008°31'0 0.0
2015-Mar-19 16:29N 53°35' E 008°31'0 0.0
2015-Mar-19 15:29N 53°35' E 008°31'0 0.0
2015-Mar-19 14:33N 53°35' E 008°31'8 7.6
2015-Mar-19 13:33N 53°41' E 008°22'1514.7
2015-Mar-19 12:33N 53°50' E 008°03'1313.3
2015-Mar-19 11:33N 53°53' E 007°41'3 2.9
2015-Mar-19 10:33N 53°53' E 007°36'2 1.6
2015-Mar-19 09:33N 53°54' E 007°34'4 4.3
2015-Mar-19 08:33N 53°54' E 007°27'7 6.6
2015-Mar-19 07:33N 53°53' E 007°16'9 9.2
2015-Mar-19 06:33N 53°51' E 007°00'10 9.8
2015-Mar-19 05:32N 53°49' E 006°44'1010.1
2015-Mar-19 04:33N 53°46' E 006°28'1110.2
2015-Mar-19 03:29N 53°43' E 006°10'910.0
2015-Mar-19 02:33N 53°40' E 005°55'10 9.7
2015-Mar-19 01:33N 53°37' E 005°39'1010.2
2015-Mar-19 00:33N 53°34' E 005°23'1010.1
2015-Mar-18 23:33N 53°31' E 005°07'10 9.8
2015-Mar-18 22:33N 53°27' E 004°52'10 9.5
2015-Mar-18 21:33N 53°21' E 004°40'8 8.5
2015-Mar-18 20:33N 53°13' E 004°34'9 8.7
2015-Mar-18 19:32N 53°05' E 004°27'9 9.0
2015-Mar-18 18:33N 52°57' E 004°20'  

Dump ship's entire track history